Time;durP1;ratioP1;P1;durP2;ratioP2;P2;SDS_P1;SDS_P2;PMS_P1;PMS_P2;Temp;Humidity;BMP_temperature;BMP_pressure;BME280_temperature;BME280_humidity;BME280_pressure;Samples;Min_cycle;Max_cycle;Signal;HPM_P1;HPM_P2
2021/09/13 00:01:57;;;;;;;4.25;2.30;;;16.10;96.40;;;;;;4991948;28;20467;-76
2021/09/13 00:04:23;;;;;;;4.75;2.28;;;16.10;96.40;;;;;;4990266;28;20102;-75
2021/09/13 00:06:48;;;;;;;4.65;2.20;;;16.00;96.40;;;;;;4993185;28;20035;-75
2021/09/13 00:09:14;;;;;;;3.13;1.80;;;16.00;96.40;;;;;;4995555;28;20525;-74
2021/09/13 00:11:39;;;;;;;3.72;2.25;;;16.00;96.40;;;;;;4995002;28;20029;-75
2021/09/13 00:14:05;;;;;;;3.30;1.95;;;16.00;96.50;;;;;;4994451;28;20113;-76
2021/09/13 00:16:31;;;;;;;3.65;2.17;;;16.00;96.50;;;;;;4994872;28;20126;-74
2021/09/13 00:18:56;;;;;;;5.57;2.60;;;16.00;96.50;;;;;;4994478;28;20019;-75
2021/09/13 00:21:22;;;;;;;2.47;1.60;;;16.00;96.50;;;;;;4993770;28;20517;-75
2021/09/13 00:23:48;;;;;;;3.88;2.33;;;16.00;96.50;;;;;;4993980;28;20097;-75
2021/09/13 00:26:14;;;;;;;3.75;2.08;;;15.90;96.50;;;;;;4995266;28;20129;-75
2021/09/13 00:28:39;;;;;;;3.15;1.98;;;15.90;96.50;;;;;;4993733;28;20026;-75
2021/09/13 00:31:05;;;;;;;5.35;2.38;;;15.90;96.60;;;;;;4995433;28;20073;-75
2021/09/13 00:33:30;;;;;;;4.75;2.22;;;15.90;96.60;;;;;;4995161;28;20093;-75
2021/09/13 00:35:56;;;;;;;5.50;2.10;;;15.90;96.60;;;;;;4995434;28;20033;-75
2021/09/13 00:38:22;;;;;;;5.75;2.30;;;15.80;96.60;;;;;;5009394;28;20475;-75
2021/09/13 00:40:47;;;;;;;5.95;2.60;;;15.80;96.70;;;;;;4995263;28;20459;-74
2021/09/13 00:43:13;;;;;;;6.63;2.60;;;15.80;96.70;;;;;;4995103;28;20474;-74
2021/09/13 00:45:39;;;;;;;6.47;2.38;;;15.80;96.70;;;;;;4994575;28;20065;-76
2021/09/13 00:48:05;;;;;;;6.80;2.72;;;15.80;96.60;;;;;;4995092;28;20041;-74
2021/09/13 00:50:30;;;;;;;4.40;2.53;;;15.80;96.60;;;;;;5009550;28;20018;-75
2021/09/13 00:52:56;;;;;;;5.53;2.40;;;15.80;96.60;;;;;;4995090;28;20026;-74
2021/09/13 00:55:23;;;;;;;4.70;2.10;;;15.80;96.60;;;;;;4994092;28;20057;-74
2021/09/13 00:57:51;;;;;;;3.47;2.20;;;15.80;96.60;;;;;;4993674;28;20031;-74
2021/09/13 01:00:17;;;;;;;4.43;2.30;;;15.80;96.60;;;;;;4994849;28;20026;-74
2021/09/13 01:02:43;;;;;;;3.60;2.22;;;15.80;96.60;;;;;;4994285;28;20436;-74
2021/09/13 01:05:09;;;;;;;3.95;2.40;;;15.80;96.60;;;;;;4994891;28;20048;-74
2021/09/13 01:07:35;;;;;;;4.00;1.90;;;15.80;96.60;;;;;;4994133;28;20494;-74
2021/09/13 01:10:02;;;;;;;3.83;2.20;;;15.80;96.60;;;;;;5009754;28;20022;-74
2021/09/13 01:12:28;;;;;;;4.13;2.38;;;15.80;96.60;;;;;;4994200;28;20493;-75
2021/09/13 01:14:53;;;;;;;4.72;2.25;;;15.80;96.70;;;;;;4993720;28;20027;-74
2021/09/13 01:17:22;;;;;;;3.83;2.45;;;15.80;96.60;;;;;;4994513;28;20027;-74
2021/09/13 01:19:48;;;;;;;5.45;2.35;;;15.70;96.60;;;;;;4994490;28;20018;-74
2021/09/13 01:22:16;;;;;;;4.82;2.08;;;15.70;96.60;;;;;;4994305;28;20022;-74
2021/09/13 01:24:42;;;;;;;4.00;2.20;;;15.70;96.60;;;;;;4992457;28;20297;-74
2021/09/13 01:27:10;;;;;;;3.50;2.15;;;15.70;96.60;;;;;;4994099;28;20536;-74
2021/09/13 01:29:37;;;;;;;3.67;1.95;;;15.70;96.60;;;;;;4992542;28;20114;-74
2021/09/13 01:32:04;;;;;;;4.55;2.35;;;15.70;96.70;;;;;;5009343;28;20022;-74
2021/09/13 01:34:30;;;;;;;2.90;2.00;;;15.60;96.70;;;;;;4993717;28;20077;-75
2021/09/13 01:36:56;;;;;;;2.45;1.70;;;15.70;96.70;;;;;;5009371;28;20030;-73
2021/09/13 01:39:22;;;;;;;3.72;2.30;;;15.60;96.70;;;;;;4994101;28;20033;-74
2021/09/13 01:41:47;;;;;;;5.47;2.35;;;15.60;96.70;;;;;;4993594;28;20026;-75
2021/09/13 01:44:14;;;;;;;3.97;2.45;;;15.60;96.70;;;;;;4994416;28;20030;-75
2021/09/13 01:46:41;;;;;;;3.30;1.58;;;15.60;96.80;;;;;;4993317;28;20038;-75
2021/09/13 01:49:08;;;;;;;4.18;2.20;;;15.60;96.80;;;;;;4993992;28;20034;-75
2021/09/13 01:51:34;;;;;;;3.55;2.00;;;15.60;96.80;;;;;;4992102;28;20479;-75
2021/09/13 01:54:00;;;;;;;6.05;2.08;;;15.50;96.80;;;;;;4992735;28;20018;-75
2021/09/13 01:56:27;;;;;;;3.00;1.80;;;15.50;96.80;;;;;;4992030;28;20127;-75
2021/09/13 01:58:53;;;;;;;5.95;2.17;;;15.50;96.80;;;;;;4992813;28;20022;-74
2021/09/13 02:01:19;;;;;;;4.55;2.20;;;15.50;96.80;;;;;;4993737;28;20093;-74
2021/09/13 02:03:45;;;;;;;3.03;2.05;;;15.50;96.80;;;;;;4991860;28;20053;-74
2021/09/13 02:06:11;;;;;;;3.00;1.92;;;15.50;96.80;;;;;;4993881;28;20046;-74
2021/09/13 02:08:36;;;;;;;3.95;2.10;;;15.50;96.80;;;;;;4992772;28;20033;-74
2021/09/13 02:11:04;;;;;;;5.15;2.58;;;15.50;96.80;;;;;;4993586;28;20455;-74
2021/09/13 02:13:30;;;;;;;3.20;1.98;;;15.50;96.80;;;;;;4993002;28;20100;-74
2021/09/13 02:15:56;;;;;;;6.03;2.58;;;15.50;96.80;;;;;;4992231;28;20026;-74
2021/09/13 02:18:21;;;;;;;6.70;2.20;;;15.50;96.90;;;;;;4993937;28;20093;-74
2021/09/13 02:20:47;;;;;;;4.10;2.50;;;15.40;96.90;;;;;;4992712;28;20153;-74
2021/09/13 02:23:13;;;;;;;4.75;2.05;;;15.40;96.90;;;;;;4993332;28;20030;-74
2021/09/13 02:25:39;;;;;;;3.83;2.03;;;15.30;96.90;;;;;;4992778;28;20026;-74
2021/09/13 02:28:05;;;;;;;3.47;1.92;;;15.30;96.90;;;;;;4975471;28;20057;-74
2021/09/13 02:30:31;;;;;;;5.75;2.47;;;15.30;96.90;;;;;;4991122;28;20023;-74
2021/09/13 02:32:56;;;;;;;3.53;2.30;;;15.30;97.00;;;;;;5008222;28;20470;-74
2021/09/13 02:35:22;;;;;;;4.75;2.28;;;15.30;97.00;;;;;;4993437;28;20065;-74
2021/09/13 02:37:48;;;;;;;4.40;2.05;;;15.30;97.00;;;;;;4991293;28;20061;-75
2021/09/13 02:40:14;;;;;;;4.13;2.40;;;15.30;97.00;;;;;;4993527;28;20104;-74
2021/09/13 02:42:39;;;;;;;4.15;1.92;;;15.30;97.00;;;;;;4991221;28;20108;-75
2021/09/13 02:45:06;;;;;;;3.95;2.10;;;15.30;97.00;;;;;;4991985;28;20019;-75
2021/09/13 02:47:32;;;;;;;7.07;2.30;;;15.30;97.00;;;;;;4991869;28;20039;-75
2021/09/13 02:49:58;;;;;;;3.17;2.00;;;15.30;97.00;;;;;;5008075;28;20026;-75
2021/09/13 02:52:24;;;;;;;2.95;1.98;;;15.30;97.00;;;;;;4993291;28;20033;-76
2021/09/13 02:54:49;;;;;;;3.95;2.17;;;15.30;97.00;;;;;;4992410;28;20081;-76
2021/09/13 02:57:15;;;;;;;5.53;2.10;;;15.30;97.00;;;;;;4992919;28;20501;-75
2021/09/13 02:59:40;;;;;;;4.32;2.10;;;15.30;96.90;;;;;;4991037;28;20061;-76
2021/09/13 03:02:06;;;;;;;5.85;2.20;;;15.30;96.90;;;;;;4993008;28;20424;-76
2021/09/13 03:04:32;;;;;;;3.35;1.52;;;15.40;96.90;;;;;;4991971;28;20018;-76
2021/09/13 03:06:57;;;;;;;2.85;2.05;;;15.30;96.90;;;;;;4992722;28;20042;-76
2021/09/13 03:09:23;;;;;;;4.78;2.28;;;15.30;96.90;;;;;;5007791;28;20085;-76
2021/09/13 03:11:49;;;;;;;2.45;1.70;;;15.30;96.90;;;;;;4992193;28;20256;-76
2021/09/13 03:14:14;;;;;;;4.35;1.77;;;15.30;96.90;;;;;;4992737;28;20033;-75
2021/09/13 03:16:40;;;;;;;3.50;1.92;;;15.30;96.90;;;;;;4990811;28;20030;-76
2021/09/13 03:19:06;;;;;;;4.13;2.10;;;15.30;97.10;;;;;;4992792;28;20065;-76
2021/09/13 03:21:32;;;;;;;3.17;1.90;;;15.30;96.80;;;;;;4990754;28;20113;-76
2021/09/13 03:23:57;;;;;;;2.95;1.80;;;15.20;96.80;;;;;;4992439;28;20539;-76
2021/09/13 03:26:23;;;;;;;3.70;2.08;;;15.20;96.80;;;;;;4992529;28;20363;-76
2021/09/13 03:28:48;;;;;;;2.78;1.85;;;15.20;96.80;;;;;;4992019;28;20166;-76
2021/09/13 03:31:14;;;;;;;5.78;2.05;;;15.20;96.80;;;;;;4991230;28;20025;-76
2021/09/13 03:33:40;;;;;;;3.25;1.98;;;15.20;96.80;;;;;;4990663;28;20430;-76
2021/09/13 03:36:05;;;;;;;3.17;2.35;;;15.20;96.80;;;;;;5007475;28;20108;-76
2021/09/13 03:38:32;;;;;;;4.28;2.00;;;15.10;96.80;;;;;;4990797;28;20475;-77
2021/09/13 03:40:58;;;;;;;4.70;2.13;;;15.20;96.80;;;;;;4992616;28;20356;-77
2021/09/13 03:43:24;;;;;;;3.80;1.95;;;15.20;96.80;;;;;;4996302;28;20029;-77
2021/09/13 03:45:50;;;;;;;3.33;1.98;;;15.10;96.80;;;;;;4995576;28;20033;-77
2021/09/13 03:48:16;;;;;;;4.38;2.25;;;15.10;96.80;;;;;;4996125;28;20546;-77
2021/09/13 03:50:41;;;;;;;4.82;2.60;;;15.10;96.80;;;;;;4995408;28;20073;-77
2021/09/13 03:53:07;;;;;;;4.13;2.35;;;15.10;96.80;;;;;;4994565;28;20054;-76
2021/09/13 03:55:35;;;;;;;4.78;2.33;;;15.10;96.80;;;;;;4995837;28;20352;-77
2021/09/13 03:58:02;;;;;;;6.20;2.47;;;15.10;96.80;;;;;;5010352;28;20031;-77
2021/09/13 04:00:28;;;;;;;4.88;2.08;;;15.10;96.80;;;;;;4995314;28;20454;-77
2021/09/13 04:02:53;;;;;;;5.20;1.60;;;15.20;96.80;;;;;;5009250;28;20022;-77
2021/09/13 04:05:21;;;;;;;4.00;1.60;;;15.20;96.80;;;;;;4994698;28;20026;-76
2021/09/13 04:10:32;;;;;;;7.55;1.90;;;15.20;96.90;;;;;;4995611;28;20076;-77
2021/09/13 04:12:58;;;;;;;5.25;1.90;;;15.20;96.90;;;;;;4993405;28;20226;-76
2021/09/13 04:15:23;;;;;;;8.85;4.18;;;15.20;96.90;;;;;;4993903;28;20474;-75
2021/09/13 04:17:49;;;;;;;4.72;2.70;;;15.20;96.90;;;;;;4994701;28;20109;-76
2021/09/13 04:20:15;;;;;;;4.13;2.50;;;15.20;96.80;;;;;;4994186;28;20080;-75
2021/09/13 04:22:40;;;;;;;5.00;2.58;;;15.20;97.10;;;;;;4994471;28;20403;-76
2021/09/13 04:25:07;;;;;;;4.72;2.35;;;15.10;96.80;;;;;;4994856;28;20050;-76
2021/09/13 04:27:33;;;;;;;3.28;2.10;;;15.10;96.90;;;;;;5009944;28;20537;-76
2021/09/13 04:30:00;;;;;;;5.65;2.15;;;15.10;96.90;;;;;;4992994;28;20027;-76
2021/09/13 04:32:25;;;;;;;4.03;2.10;;;15.10;97.00;;;;;;4993413;28;20475;-77
2021/09/13 04:34:51;;;;;;;4.35;2.03;;;15.10;97.30;;;;;;4993156;28;20058;-76
2021/09/13 04:37:17;;;;;;;5.20;2.28;;;15.10;97.00;;;;;;4993652;28;20080;-75
2021/09/13 04:39:42;;;;;;;5.88;2.40;;;15.10;97.00;;;;;;4993032;28;20045;-78
2021/09/13 04:42:11;;;;;;;4.45;2.28;;;15.10;97.10;;;;;;4993302;28;20034;-76
2021/09/13 04:44:38;;;;;;;3.42;1.90;;;15.10;97.10;;;;;;5007311;28;20030;-81
2021/09/13 04:47:06;;;;;;;5.07;2.20;;;15.00;97.20;;;;;;4992978;28;20037;-77
2021/09/13 04:49:32;;;;;;;4.82;1.98;;;15.00;97.20;;;;;;4993047;28;20033;-76
2021/09/13 04:51:58;;;;;;;4.65;2.20;;;15.00;97.20;;;;;;4991920;28;20027;-76
2021/09/13 04:54:23;;;;;;;3.63;2.08;;;15.00;97.20;;;;;;4990980;28;20027;-75
2021/09/13 04:56:49;;;;;;;2.95;1.67;;;14.90;97.30;;;;;;4992850;28;20035;-73
2021/09/13 04:59:17;;;;;;;3.08;1.80;;;14.90;97.30;;;;;;5010067;28;20033;-73
2021/09/13 05:01:43;;;;;;;3.25;1.77;;;15.00;97.30;;;;;;4994340;28;20102;-74
2021/09/13 05:04:09;;;;;;;4.07;2.00;;;15.00;97.20;;;;;;4994854;28;20042;-73
2021/09/13 05:06:37;;;;;;;3.67;2.10;;;15.00;97.20;;;;;;4994810;28;20027;-74
2021/09/13 05:09:04;;;;;;;2.90;1.80;;;15.00;97.20;;;;;;5009740;28;20018;-74
2021/09/13 05:11:31;;;;;;;3.13;1.88;;;15.00;97.20;;;;;;4993520;28;20027;-74
2021/09/13 05:13:56;;;;;;;6.70;2.05;;;15.00;97.20;;;;;;4992874;28;20466;-74
2021/09/13 05:16:22;;;;;;;3.92;1.80;;;15.00;97.20;;;;;;4994965;28;20026;-74
2021/09/13 05:18:48;;;;;;;5.03;1.95;;;15.00;97.20;;;;;;4993771;28;20030;-74
2021/09/13 05:21:14;;;;;;;2.40;1.60;;;14.90;97.10;;;;;;4994480;28;20034;-74
2021/09/13 05:23:40;;;;;;;3.13;1.80;;;15.00;97.10;;;;;;4993654;28;20064;-74
2021/09/13 05:26:06;;;;;;;4.65;1.90;;;15.00;97.10;;;;;;4994790;28;20098;-74
2021/09/13 05:28:32;;;;;;;3.97;2.00;;;15.00;97.10;;;;;;4993145;28;20062;-74
2021/09/13 05:30:58;;;;;;;3.97;1.95;;;15.10;97.10;;;;;;4993823;28;20037;-74
2021/09/13 05:33:23;;;;;;;2.85;1.80;;;15.10;97.10;;;;;;4993018;28;20531;-74
2021/09/13 05:35:49;;;;;;;5.70;2.63;;;15.10;97.00;;;;;;4992441;28;20029;-74
2021/09/13 05:38:15;;;;;;;8.02;2.03;;;15.10;97.00;;;;;;4994229;28;20161;-74
2021/09/13 05:40:43;;;;;;;4.28;2.45;;;15.10;97.00;;;;;;4993626;28;20099;-75
2021/09/13 05:43:09;;;;;;;5.70;2.15;;;15.10;97.00;;;;;;4992811;28;20442;-74
2021/09/13 05:45:36;;;;;;;5.45;2.08;;;15.10;97.00;;;;;;4993187;28;20061;-74
2021/09/13 05:48:02;;;;;;;4.95;2.40;;;15.20;97.00;;;;;;4993179;28;20121;-75
2021/09/13 05:50:28;;;;;;;7.20;2.22;;;15.20;97.30;;;;;;4994065;28;20022;-74
2021/09/13 05:52:53;;;;;;;4.47;2.20;;;15.20;97.00;;;;;;4991801;28;20033;-74
2021/09/13 05:55:21;;;;;;;4.72;2.40;;;15.20;97.00;;;;;;5008956;28;20023;-74
2021/09/13 05:57:47;;;;;;;7.18;2.33;;;15.20;97.00;;;;;;4992001;28;20065;-75
2021/09/13 06:00:13;;;;;;;6.57;2.40;;;15.20;97.00;;;;;;4993822;28;20022;-74
2021/09/13 06:02:39;;;;;;;5.35;2.55;;;15.20;97.00;;;;;;4994035;28;20102;-74
2021/09/13 06:05:06;;;;;;;4.28;2.50;;;15.20;97.00;;;;;;5007420;28;20355;-74
2021/09/13 06:07:31;;;;;;;4.05;2.25;;;15.20;97.00;;;;;;5008664;28;20081;-74
2021/09/13 06:09:57;;;;;;;6.43;2.88;;;15.30;97.00;;;;;;4993200;28;20030;-74
2021/09/13 06:12:22;;;;;;;7.60;3.20;;;15.30;97.00;;;;;;4994056;28;20398;-74
2021/09/13 06:14:48;;;;;;;7.47;2.53;;;15.30;97.00;;;;;;4992889;28;20048;-74
2021/09/13 06:17:14;;;;;;;6.35;3.38;;;15.30;97.00;;;;;;4993521;28;20033;-74
2021/09/13 06:19:39;;;;;;;5.03;2.38;;;15.30;97.00;;;;;;4992235;28;20073;-74
2021/09/13 06:22:05;;;;;;;9.65;2.88;;;15.30;97.00;;;;;;4992845;28;20379;-74
2021/09/13 06:24:32;;;;;;;7.13;2.78;;;15.30;97.00;;;;;;4993277;28;20055;-74
2021/09/13 06:26:58;;;;;;;8.07;2.92;;;15.30;97.00;;;;;;4991343;28;20042;-74
2021/09/13 06:29:23;;;;;;;8.85;3.05;;;15.30;97.30;;;;;;4991905;28;20081;-72
2021/09/13 06:31:49;;;;;;;7.43;3.20;;;15.30;97.00;;;;;;4991404;28;20471;-73
2021/09/13 06:34:16;;;;;;;6.63;2.83;;;15.30;97.00;;;;;;4992001;28;20497;-75
2021/09/13 06:36:43;;;;;;;7.43;3.25;;;15.40;97.00;;;;;;4991834;28;20023;-74
2021/09/13 06:39:09;;;;;;;6.82;2.90;;;15.40;97.00;;;;;;4992510;28;20037;-74
2021/09/13 06:41:35;;;;;;;8.13;3.72;;;15.40;97.00;;;;;;4993267;28;20173;-74
2021/09/13 06:44:01;;;;;;;10.18;3.70;;;15.40;97.00;;;;;;4992151;28;20165;-74
2021/09/13 06:46:42;;;;;;;6.95;3.13;;;15.40;97.00;;;;;;4992958;28;20064;-74
2021/09/13 06:49:08;;;;;;;;;;;15.50;97.00;;;;;;4992837;28;20023;-74
2021/09/13 06:51:34;;;;;;;7.93;3.60;;;15.50;96.90;;;;;;4992866;28;19906;-74
2021/09/13 06:53:59;;;;;;;6.70;3.20;;;15.50;96.90;;;;;;4991929;28;20026;-74
2021/09/13 06:56:25;;;;;;;7.60;3.35;;;15.50;96.90;;;;;;4992758;28;20022;-74
2021/09/13 06:58:52;;;;;;;5.97;3.42;;;15.50;96.90;;;;;;4992170;28;20054;-74
2021/09/13 07:01:21;;;;;;;7.05;2.88;;;15.60;97.00;;;;;;4992813;28;20050;-73
2021/09/13 07:03:48;;;;;;;7.38;3.60;;;15.60;97.00;;;;;;4992278;28;20447;-76
2021/09/13 07:06:13;;;;;;;7.95;3.72;;;15.60;97.00;;;;;;4992740;28;20019;-75
2021/09/13 07:08:39;;;;;;;6.93;3.60;;;15.60;97.00;;;;;;4992573;28;20093;-75
2021/09/13 07:11:06;;;;;;;8.23;3.78;;;15.60;96.90;;;;;;4991862;28;20022;-75
2021/09/13 07:13:32;;;;;;;8.85;3.20;;;15.70;97.00;;;;;;4991365;28;20513;-75
2021/09/13 07:15:57;;;;;;;9.40;3.45;;;15.70;96.90;;;;;;4990448;28;20061;-75
2021/09/13 07:18:23;;;;;;;8.80;3.50;;;15.80;96.90;;;;;;4992906;28;20049;-75
2021/09/13 07:20:49;;;;;;;7.05;3.65;;;15.80;96.90;;;;;;4992142;28;20081;-75
2021/09/13 07:23:14;;;;;;;7.25;3.63;;;15.80;96.90;;;;;;4992216;28;20104;-74
2021/09/13 07:25:40;;;;;;;9.40;3.55;;;15.90;96.90;;;;;;4991083;28;20042;-75
2021/09/13 07:28:06;;;;;;;6.55;3.45;;;15.90;96.80;;;;;;4991971;28;20038;-75
2021/09/13 07:30:32;;;;;;;10.05;3.42;;;16.00;96.80;;;;;;4992221;28;20038;-74
2021/09/13 07:32:58;;;;;;;6.38;3.17;;;16.00;96.70;;;;;;4991883;28;20026;-75
2021/09/13 07:35:23;;;;;;;10.57;3.88;;;16.10;96.70;;;;;;4991140;28;20474;-72
2021/09/13 07:37:49;;;;;;;7.85;3.97;;;16.10;96.70;;;;;;4991881;28;20041;-75
2021/09/13 07:40:15;;;;;;;8.60;3.90;;;16.10;96.60;;;;;;4991175;28;20023;-75
2021/09/13 07:42:42;;;;;;;8.88;3.92;;;16.10;96.60;;;;;;4991144;28;20065;-74
2021/09/13 07:45:08;;;;;;;8.23;3.92;;;16.20;96.60;;;;;;4991759;28;20033;-75
2021/09/13 07:47:35;;;;;;;8.38;3.75;;;16.20;96.90;;;;;;4992004;28;20487;-74
2021/09/13 07:50:03;;;;;;;7.25;3.08;;;16.30;96.60;;;;;;4991740;28;20200;-75
2021/09/13 07:52:29;;;;;;;8.02;3.78;;;16.30;96.50;;;;;;4992071;28;20032;-75
2021/09/13 07:54:54;;;;;;;8.13;3.17;;;16.40;96.50;;;;;;4990543;28;20030;-75
2021/09/13 07:57:20;;;;;;;8.57;3.97;;;16.40;96.50;;;;;;4992452;28;20027;-75
2021/09/13 07:59:46;;;;;;;8.43;3.42;;;16.50;96.50;;;;;;4990984;28;20061;-75
2021/09/13 08:02:13;;;;;;;6.63;3.03;;;16.50;96.50;;;;;;4991684;28;20027;-75
2021/09/13 08:04:39;;;;;;;6.50;3.40;;;16.50;96.40;;;;;;4992249;28;20158;-74
2021/09/13 08:07:05;;;;;;;6.80;3.15;;;16.60;96.40;;;;;;4991151;28;20034;-75
2021/09/13 08:09:30;;;;;;;7.22;2.50;;;16.70;96.40;;;;;;4992112;28;20030;-75
2021/09/13 08:11:57;;;;;;;7.68;2.97;;;16.70;96.40;;;;;;4991356;28;20453;-75
2021/09/13 08:14:23;;;;;;;6.82;2.65;;;16.80;96.30;;;;;;4991671;28;20068;-75
2021/09/13 08:16:49;;;;;;;4.60;2.40;;;16.90;96.30;;;;;;4991711;28;20026;-75
2021/09/13 08:19:14;;;;;;;4.78;2.28;;;16.90;96.20;;;;;;4989797;28;20076;-75
2021/09/13 08:21:41;;;;;;;9.65;3.17;;;17.00;96.10;;;;;;4992029;28;20022;-75
2021/09/13 08:24:07;;;;;;;5.68;2.70;;;17.20;96.00;;;;;;4991271;28;20138;-75
2021/09/13 08:26:34;;;;;;;5.78;2.70;;;17.30;95.80;;;;;;5007480;28;20027;-75
2021/09/13 08:28:59;;;;;;;7.22;2.85;;;17.40;95.60;;;;;;4993684;28;20030;-75
2021/09/13 08:31:25;;;;;;;7.10;2.70;;;17.50;95.50;;;;;;4995558;28;20038;-75
2021/09/13 08:33:51;;;;;;;8.13;2.88;;;17.60;95.50;;;;;;4994177;28;20034;-75
2021/09/13 08:36:16;;;;;;;7.35;2.28;;;17.70;95.40;;;;;;4993435;28;20463;-75
2021/09/13 08:38:42;;;;;;;7.32;2.55;;;17.60;95.30;;;;;;5010264;28;20042;-75
2021/09/13 08:41:08;;;;;;;4.47;2.25;;;17.70;95.30;;;;;;4994427;28;20026;-75
2021/09/13 08:43:34;;;;;;;4.07;2.00;;;17.70;95.40;;;;;;4995025;28;20038;-75
2021/09/13 08:46:14;;;;;;;3.95;1.60;;;17.70;95.30;;;;;;4994687;28;20053;-75
2021/09/13 08:48:49;;;;;;;4.03;1.40;;;17.80;95.30;;;;;;5010212;28;20026;-74
2021/09/13 08:51:29;;;;;;;3.83;1.50;;;17.80;95.20;;;;;;4994580;28;20026;-73
2021/09/13 08:53:55;;;;;;;3.13;1.58;;;17.90;95.20;;;;;;4993153;28;20018;-74
2021/09/13 08:56:27;;;;;;;4.32;1.83;;;17.90;95.20;;;;;;4995075;28;20034;-74
2021/09/13 08:58:55;;;;;;;5.15;1.83;;;17.90;95.10;;;;;;4995147;28;20022;-74
2021/09/13 09:01:21;;;;;;;4.78;1.73;;;17.90;95.10;;;;;;4994867;28;20467;-74
2021/09/13 09:03:50;;;;;;;2.58;1.30;;;17.90;95.10;;;;;;4994661;28;20053;-74
2021/09/13 09:06:32;;;;;;;3.03;1.52;;;17.90;95.10;;;;;;4994063;28;20023;-74
2021/09/13 09:09:07;;;;;;;2.67;1.27;;;18.00;95.00;;;;;;4992934;28;20030;-74
2021/09/13 09:12:09;;;;;;;4.47;1.60;;;18.00;95.00;;;;;;4993418;28;20034;-74
2021/09/13 09:14:41;;;;;;;3.47;1.55;;;18.00;95.00;;;;;;5011857;28;20030;-74
2021/09/13 09:17:07;;;;;;;4.93;1.30;;;18.10;95.00;;;;;;4996435;28;20038;-74
2021/09/13 09:19:33;;;;;;;2.22;1.17;;;18.10;94.90;;;;;;4994598;28;20026;-74
2021/09/13 09:22:18;;;;;;;3.83;1.10;;;18.10;94.80;;;;;;4993925;28;20018;-75
2021/09/13 09:24:45;;;;;;;3.58;1.30;;;18.20;94.80;;;;;;4994182;28;20438;-75
2021/09/13 09:27:26;;;;;;;3.00;1.45;;;18.20;94.80;;;;;;5089460;28;20423;-74
2021/09/13 09:29:52;;;;;;;3.97;1.48;;;18.20;94.80;;;;;;5088193;28;20024;-74
2021/09/13 09:32:29;;;;;;;4.32;1.45;;;18.20;94.80;;;;;;5087446;28;20020;-74
2021/09/13 09:34:55;;;;;;;2.40;1.30;;;18.20;94.70;;;;;;5089500;28;20512;-74
2021/09/13 09:37:25;;;;;;;3.03;1.42;;;18.30;94.80;;;;;;5087526;28;20028;-74
2021/09/13 09:39:56;;;;;;;4.32;1.75;;;18.20;94.80;;;;;;5071629;28;20036;-75
2021/09/13 09:42:34;;;;;;;3.72;1.42;;;18.30;94.80;;;;;;5087690;28;20012;-75
2021/09/13 09:45:25;;;;;;;2.60;1.15;;;18.30;94.80;;;;;;5086850;28;20016;-74
2021/09/13 09:48:10;;;;;;;4.35;1.80;;;18.40;94.70;;;;;;5085010;28;20064;-74
2021/09/13 09:50:36;;;;;;;4.05;1.80;;;18.50;94.60;;;;;;5088029;28;20145;-74
2021/09/13 09:53:16;;;;;;;5.32;2.22;;;18.50;94.50;;;;;;5088770;28;20103;-75
2021/09/13 09:55:43;;;;;;;3.15;1.80;;;18.50;94.50;;;;;;5089228;28;20099;-74
2021/09/13 09:58:13;;;;;;;3.03;1.73;;;18.60;94.50;;;;;;5088201;28;20016;-74
2021/09/13 10:00:39;;;;;;;3.80;1.80;;;18.60;94.50;;;;;;5087605;28;20098;-73
2021/09/13 10:03:06;;;;;;;5.63;2.47;;;18.60;94.50;;;;;;5087143;28;20017;-74
2021/09/13 10:05:33;;;;;;;3.33;2.00;;;18.60;94.40;;;;;;5087401;28;20028;-74
2021/09/13 10:07:59;;;;;;;3.10;1.65;;;18.60;94.40;;;;;;5088279;28;20028;-75
2021/09/13 10:10:29;;;;;;;2.40;1.35;;;18.60;94.40;;;;;;5088674;28;20070;-73
2021/09/13 10:12:56;;;;;;;3.47;1.70;;;18.70;94.40;;;;;;5088570;28;20483;-73
2021/09/13 10:15:22;;;;;;;4.85;1.77;;;18.70;94.30;;;;;;5087901;28;20079;-73
2021/09/13 10:17:48;;;;;;;2.70;1.60;;;18.80;94.30;;;;;;5087114;28;20412;-73
2021/09/13 10:20:14;;;;;;;2.75;1.60;;;18.80;94.20;;;;;;5087772;28;20024;-72
2021/09/13 10:22:43;;;;;;;3.20;1.40;;;18.90;94.00;;;;;;5088643;28;20078;-72
2021/09/13 10:25:10;;;;;;;2.42;1.67;;;19.10;94.00;;;;;;5086070;28;20024;-75
2021/09/13 10:27:41;;;;;;;3.80;1.23;;;19.20;93.80;;;;;;5088691;28;20048;-75
2021/09/13 10:30:10;;;;;;;;;;;19.20;93.60;;;;;;5088265;28;20059;-73
2021/09/13 10:32:36;;;;;;;4.60;1.80;;;19.30;93.60;;;;;;5086386;28;20276;-72
2021/09/13 10:35:02;;;;;;;2.33;1.42;;;19.30;93.40;;;;;;5087366;28;20476;-73
2021/09/13 10:37:41;;;;;;;4.05;1.48;;;19.40;93.30;;;;;;5081265;28;20468;-75
2021/09/13 10:40:06;;;;;;;3.85;2.05;;;19.50;93.30;;;;;;5072594;28;20031;-75
2021/09/13 10:42:42;;;;;;;3.92;1.30;;;19.50;93.10;;;;;;5074538;28;20025;-75
2021/09/13 10:45:18;;;;;;;3.28;1.15;;;19.60;93.10;;;;;;5073841;28;20024;-75
2021/09/13 10:47:47;;;;;;;2.80;1.15;;;19.70;92.90;;;;;;5073291;28;20024;-75
2021/09/13 10:50:20;;;;;;;2.22;1.08;;;19.80;92.80;;;;;;5072492;28;20028;-75
2021/09/13 10:52:48;;;;;;;1.95;1.10;;;19.80;92.60;;;;;;5073138;28;20378;-75
2021/09/13 10:55:17;;;;;;;1.52;1.00;;;19.80;92.60;;;;;;5073905;28;20028;-72
2021/09/13 10:58:07;;;;;;;3.63;1.50;;;19.80;92.50;;;;;;5073264;28;20017;-75
2021/09/13 11:00:39;;;;;;;2.80;1.15;;;19.80;92.50;;;;;;5074222;28;20107;-74
2021/09/13 11:03:30;;;;;;;2.05;1.20;;;19.70;92.60;;;;;;5072403;28;20017;-75
2021/09/13 11:06:14;;;;;;;2.38;1.17;;;19.70;92.60;;;;;;5074307;28;20028;-74
2021/09/13 11:09:02;;;;;;;5.55;1.20;;;19.70;92.70;;;;;;5074345;28;20103;-74
2021/09/13 11:11:51;;;;;;;2.05;1.23;;;19.60;92.70;;;;;;5073480;28;20480;-74
2021/09/13 11:14:20;;;;;;;1.75;1.00;;;19.50;92.80;;;;;;5073818;28;20026;-74
2021/09/13 11:16:48;;;;;;;1.23;1.10;;;19.50;92.90;;;;;;5074349;28;20024;-74
2021/09/13 11:19:16;;;;;;;0.73;0.68;;;19.40;93.00;;;;;;5073340;28;20399;-73
2021/09/13 11:21:50;;;;;;;2.30;0.88;;;19.30;93.00;;;;;;5073632;28;20025;-73
2021/09/13 11:24:22;;;;;;;2.35;0.93;;;19.30;93.20;;;;;;5073161;28;20538;-75
2021/09/13 11:26:53;;;;;;;1.25;1.00;;;19.30;93.30;;;;;;5073738;28;20052;-73
2021/09/13 11:29:28;;;;;;;2.30;0.73;;;19.20;93.20;;;;;;5073154;28;20024;-73
2021/09/13 11:31:59;;;;;;;3.65;1.00;;;19.20;93.20;;;;;;5073670;28;20467;-73
2021/09/13 11:34:41;;;;;;;1.52;0.85;;;19.20;93.30;;;;;;5073150;28;20300;-73
2021/09/13 11:37:19;;;;;;;1.17;0.93;;;19.20;93.30;;;;;;5071451;28;20165;-74
2021/09/13 11:39:51;;;;;;;2.95;1.10;;;19.20;93.30;;;;;;5072241;28;20107;-74
2021/09/13 11:42:24;;;;;;;1.58;0.82;;;19.20;93.20;;;;;;5071480;28;20098;-74
2021/09/13 11:45:07;;;;;;;1.00;0.80;;;19.20;93.10;;;;;;5073034;28;20447;-74
2021/09/13 11:47:35;;;;;;;1.98;1.02;;;19.30;93.10;;;;;;5072226;28;20024;-74
2021/09/13 11:50:05;;;;;;;1.77;1.00;;;19.30;93.00;;;;;;5072349;28;20214;-74
2021/09/13 11:52:34;;;;;;;2.13;1.00;;;19.30;92.90;;;;;;5072945;28;20025;-74
2021/09/13 11:55:16;;;;;;;1.77;1.10;;;19.40;92.80;;;;;;5071877;28;20103;-73
2021/09/13 11:57:50;;;;;;;1.77;0.93;;;19.50;92.60;;;;;;5071834;28;20017;-74
2021/09/13 12:00:22;;;;;;;1.23;0.75;;;19.50;92.50;;;;;;5072077;28;20069;-74
2021/09/13 12:02:52;;;;;;;;;;;19.60;92.40;;;;;;5073481;28;20055;-73
2021/09/13 12:05:20;;;;;;;2.78;0.93;;;19.60;92.40;;;;;;5071011;28;20007;-74
2021/09/13 12:07:48;;;;;;;1.17;0.70;;;19.70;92.20;;;;;;5071664;28;20035;-74
2021/09/13 12:10:26;;;;;;;1.08;0.82;;;19.80;92.10;;;;;;5072552;28;20028;-74
2021/09/13 12:12:57;;;;;;;2.33;0.80;;;19.90;91.90;;;;;;5071225;28;20135;-74
2021/09/13 12:15:29;;;;;;;3.63;0.95;;;20.00;91.80;;;;;;5072291;28;20123;-74
2021/09/13 12:17:55;;;;;;;1.98;1.00;;;20.00;91.70;;;;;;5072979;28;20028;-74
2021/09/13 12:20:22;;;;;;;2.28;0.98;;;20.10;91.60;;;;;;5071987;28;20043;-74
2021/09/13 12:23:07;;;;;;;1.80;0.95;;;20.20;91.50;;;;;;5071268;28;20469;-73
2021/09/13 12:25:45;;;;;;;1.98;0.80;;;20.30;91.20;;;;;;5070333;28;20171;-74
2021/09/13 12:28:12;;;;;;;2.47;0.98;;;20.40;91.10;;;;;;5071963;28;20021;-74
2021/09/13 12:30:40;;;;;;;1.83;1.10;;;20.40;91.10;;;;;;5072516;28;20029;-74
2021/09/13 12:33:08;;;;;;;1.30;0.85;;;20.50;91.00;;;;;;5072497;28;20048;-74
2021/09/13 12:35:46;;;;;;;1.88;0.88;;;20.60;90.80;;;;;;5070646;28;20036;-74
2021/09/13 12:38:22;;;;;;;1.55;0.85;;;20.70;90.70;;;;;;5071567;28;20460;-75
2021/09/13 12:40:59;;;;;;;3.45;1.65;;;20.80;90.70;;;;;;5072349;28;20028;-74
2021/09/13 12:43:28;;;;;;;1.75;1.08;;;20.90;90.60;;;;;;5071501;28;20059;-74
2021/09/13 12:46:08;;;;;;;1.15;0.90;;;20.80;90.50;;;;;;5070722;28;20029;-74
2021/09/13 12:48:36;;;;;;;2.30;0.70;;;20.80;90.50;;;;;;5071545;28;20043;-74
2021/09/13 12:51:02;;;;;;;1.15;0.68;;;20.80;90.60;;;;;;5072178;28;20051;-74
2021/09/13 12:53:32;;;;;;;2.28;0.80;;;20.80;90.60;;;;;;5069929;28;20033;-74
2021/09/13 12:56:11;;;;;;;2.30;1.00;;;20.70;90.60;;;;;;5072157;28;20033;-74